Time;durP1;ratioP1;P1;durP2;ratioP2;P2;SDS_P1;SDS_P2;PMS_P1;PMS_P2;Temp;Humidity;BMP_temperature;BMP_pressure;BME280_temperature;BME280_humidity;BME280_pressure;Samples;Min_cycle;Max_cycle;Signal;HPM_P1;HPM_P2
2023/03/13 00:02:21;;;;;;;26.10;4.10;;;;;;;;;;5052505;28;20178;-77
2023/03/13 00:04:48;;;;;;;23.05;3.70;;;;;;;;;;5040694;28;20065;-80
2023/03/13 00:07:15;;;;;;;31.65;4.47;;;;;;;;;;5053300;28;20136;-78
2023/03/13 00:09:41;;;;;;;27.83;4.30;;;;;;;;;;5052137;28;20480;-79
2023/03/13 00:12:08;;;;;;;22.65;3.88;;;;;;;;;;5051270;28;20048;-78
2023/03/13 00:14:34;;;;;;;19.05;3.60;;;;;;;;;;5052768;28;20091;-78
2023/03/13 00:17:01;;;;;;;25.70;3.90;;;;;;;;;;5054014;28;20048;-76
2023/03/13 00:19:28;;;;;;;20.33;4.20;;;;;;;;;;5057330;28;20048;-78
2023/03/13 00:21:55;;;;;;;25.25;3.70;;;;;;;;;;5056714;28;20052;-79
2023/03/13 00:24:21;;;;;;;23.05;3.53;;;;;;;;;;5059838;28;20068;-77
2023/03/13 00:26:48;;;;;;;22.88;3.17;;;;;;;;;;5058543;28;20045;-78
2023/03/13 00:29:15;;;;;;;19.38;3.47;;;;;;;;;;5059232;28;20041;-78
2023/03/13 00:31:45;;;;;;;24.08;4.05;;;;;;;;;;5057222;28;20052;-78
2023/03/13 00:34:12;;;;;;;26.00;3.28;;;;;;;;;;5090850;28;20052;-77
2023/03/13 00:36:38;;;;;;;27.10;4.32;;;;;;;;;;5056230;28;20068;-79
2023/03/13 00:39:06;;;;;;;21.75;3.78;;;;;;;;;;5091197;28;20071;-78
2023/03/13 00:41:36;;;;;;;25.17;3.05;;;;;;;;;;5059141;28;20067;-77
2023/03/13 00:44:03;;;;;;;27.38;3.88;;;;;;;;;;5057026;28;20041;-77
2023/03/13 00:46:30;;;;;;;21.52;3.05;;;;;;;;;;5056226;28;20072;-77
2023/03/13 00:48:57;;;;;;;29.42;4.00;;;;;;;;;;5058275;28;20041;-77
2023/03/13 00:51:25;;;;;;;30.15;3.75;;;;;;;;;;5057138;28;20045;-78
2023/03/13 00:53:52;;;;;;;30.95;3.90;;;;;;;;;;5059206;28;20045;-78
2023/03/13 00:56:20;;;;;;;28.73;3.53;;;;;;;;;;5055995;28;20071;-78
2023/03/13 00:58:48;;;;;;;21.17;3.88;;;;;;;;;;5056806;28;20083;-79
2023/03/13 01:01:19;;;;;;;20.00;3.38;;;;;;;;;;5050568;28;20517;-77
2023/03/13 01:03:47;;;;;;;19.38;3.53;;;;;;;;;;5068161;28;20053;-78
2023/03/13 01:06:16;;;;;;;26.70;3.60;;;;;;;;;;5053252;28;20080;-79
2023/03/13 01:08:45;;;;;;;24.35;3.90;;;;;;;;;;5053033;28;20072;-78
2023/03/13 01:11:14;;;;;;;19.63;3.70;;;;;;;;;;5051956;28;20123;-78
2023/03/13 01:13:41;;;;;;;29.92;3.30;;;;;;;;;;5050495;28;20064;-78
2023/03/13 01:16:09;;;;;;;28.30;3.70;;;;;;;;;;5050050;28;20041;-77
2023/03/13 01:18:36;;;;;;;20.63;3.17;;;;;;;;;;5052054;28;20049;-77
2023/03/13 01:21:03;;;;;;;20.08;3.47;;;;;;;;;;5051941;28;20045;-78
2023/03/13 01:23:30;;;;;;;24.20;4.10;;;;;;;;;;5066796;28;20043;-78
2023/03/13 01:25:56;;;;;;;23.80;3.40;;;;;;;;;;5050997;28;20045;-79
2023/03/13 01:28:24;;;;;;;26.05;3.33;;;;;;;;;;5049837;28;20120;-77
2023/03/13 01:30:52;;;;;;;30.23;3.50;;;;;;;;;;5036895;28;20051;-79
2023/03/13 01:33:19;;;;;;;27.23;3.75;;;;;;;;;;5053440;28;20113;-78
2023/03/13 01:35:46;;;;;;;20.75;3.42;;;;;;;;;;5066567;28;20056;-78
2023/03/13 01:38:13;;;;;;;25.13;3.28;;;;;;;;;;5054046;28;20045;-77
2023/03/13 01:40:44;;;;;;;18.85;3.17;;;;;;;;;;5068813;28;20056;-78
2023/03/13 01:43:15;;;;;;;22.73;3.47;;;;;;;;;;5049957;28;20508;-79
2023/03/13 01:45:52;;;;;;;22.92;3.30;;;;;;;;;;5050458;28;20052;-78
2023/03/13 01:48:23;;;;;;;19.50;3.33;;;;;;;;;;5084058;28;20484;-78
2023/03/13 01:50:51;;;;;;;20.50;3.10;;;;;;;;;;5066158;28;20041;-78
2023/03/13 01:53:22;;;;;;;28.65;3.47;;;;;;;;;;5048586;28;20029;-79
2023/03/13 01:55:49;;;;;;;24.20;3.63;;;;;;;;;;5049050;28;20060;-79
2023/03/13 01:58:16;;;;;;;20.65;3.40;;;;;;;;;;5080296;28;20433;-78
2023/03/13 02:00:44;;;;;;;22.33;3.13;;;;;;;;;;5043909;28;20056;-79
2023/03/13 02:03:13;;;;;;;27.75;3.88;;;;;;;;;;5064697;28;20148;-79
2023/03/13 02:05:41;;;;;;;25.73;3.47;;;;;;;;;;5050051;28;20041;-78
2023/03/13 02:08:14;;;;;;;26.48;3.10;;;;;;;;;;5048933;28;20474;-79
2023/03/13 02:10:43;;;;;;;25.75;3.10;;;;;;;;;;5048161;28;20056;-79
2023/03/13 02:13:14;;;;;;;33.25;3.72;;;;;;;;;;5080839;28;20045;-77
2023/03/13 02:15:40;;;;;;;23.90;3.80;;;;;;;;;;5082333;28;20041;-78
2023/03/13 02:18:07;;;;;;;17.42;2.63;;;;;;;;;;5080564;28;20056;-79
2023/03/13 02:20:37;;;;;;;25.33;3.58;;;;;;;;;;5081157;28;20037;-78
2023/03/13 02:23:11;;;;;;;17.60;3.00;;;;;;;;;;5047441;28;20037;-78
2023/03/13 02:25:50;;;;;;;20.55;3.08;;;;;;;;;;5045894;28;20104;-78
2023/03/13 02:28:23;;;;;;;22.10;3.80;;;;;;;;;;5045545;28;20597;-78
2023/03/13 02:30:53;;;;;;;21.48;3.35;;;;;;;;;;5086426;28;20565;-79
2023/03/13 02:33:20;;;;;;;22.85;2.85;;;;;;;;;;5052504;28;20494;-78
2023/03/13 02:35:48;;;;;;;22.95;3.03;;;;;;;;;;5053091;28;20064;-79
2023/03/13 02:38:19;;;;;;;25.77;3.30;;;;;;;;;;5050711;28;20029;-79
2023/03/13 02:40:46;;;;;;;23.33;2.75;;;;;;;;;;5051284;28;20051;-79
2023/03/13 02:43:19;;;;;;;23.65;2.67;;;;;;;;;;5049235;28;20037;-78
2023/03/13 02:46:02;;;;;;;18.95;2.97;;;;;;;;;;5052335;28;20087;-79
2023/03/13 02:48:35;;;;;;;25.75;3.00;;;;;;;;;;5052924;28;20060;-78
2023/03/13 02:51:09;;;;;;;25.02;3.53;;;;;;;;;;5086269;28;20037;-79
2023/03/13 02:53:36;;;;;;;23.27;2.95;;;;;;;;;;5034544;28;20053;-79
2023/03/13 02:56:03;;;;;;;23.77;2.97;;;;;;;;;;5045892;28;20084;-79
2023/03/13 02:58:43;;;;;;;28.42;3.40;;;;;;;;;;5073287;28;20048;-79
2023/03/13 03:01:20;;;;;;;25.35;2.92;;;;;;;;;;5036012;28;20243;-79
2023/03/13 03:03:47;;;;;;;19.48;2.60;;;;;;;;;;5028603;28;20111;-77
2023/03/13 03:06:14;;;;;;;19.75;3.17;;;;;;;;;;5031905;28;20104;-79
2023/03/13 03:08:42;;;;;;;21.58;3.40;;;;;;;;;;5064695;28;20560;-79
2023/03/13 03:11:13;;;;;;;22.65;2.78;;;;;;;;;;5038467;28;20041;-78
2023/03/13 03:13:41;;;;;;;17.95;3.13;;;;;;;;;;5032168;28;20041;-78
2023/03/13 03:16:09;;;;;;;24.67;3.28;;;;;;;;;;5032405;28;20050;-77
2023/03/13 03:18:36;;;;;;;24.38;3.35;;;;;;;;;;5063916;28;20045;-78
2023/03/13 03:21:05;;;;;;;24.00;4.03;;;;;;;;;;5032780;28;20137;-78
2023/03/13 03:23:35;;;;;;;17.80;3.05;;;;;;;;;;5063921;28;20041;-78
2023/03/13 03:26:03;;;;;;;18.98;3.15;;;;;;;;;;5062529;28;20048;-76
2023/03/13 03:28:30;;;;;;;21.35;3.38;;;;;;;;;;5060997;28;20045;-77
2023/03/13 03:31:06;;;;;;;25.75;3.30;;;;;;;;;;5066262;28;20057;-78
2023/03/13 03:33:34;;;;;;;24.48;3.38;;;;;;;;;;5065240;28;20555;-77
2023/03/13 03:36:06;;;;;;;19.02;3.47;;;;;;;;;;5031173;28;20080;-77
2023/03/13 03:38:33;;;;;;;20.10;2.70;;;;;;;;;;5080554;28;20063;-77
2023/03/13 03:41:00;;;;;;;19.08;3.60;;;;;;;;;;5051148;28;20507;-78
2023/03/13 03:43:28;;;;;;;24.40;3.08;;;;;;;;;;5059381;28;20083;-78
2023/03/13 03:45:55;;;;;;;24.63;2.70;;;;;;;;;;5071630;28;20098;-77
2023/03/13 03:48:22;;;;;;;20.75;3.30;;;;;;;;;;5055812;28;20041;-79
2023/03/13 03:50:49;;;;;;;29.42;3.60;;;;;;;;;;5043585;28;20053;-77
2023/03/13 03:53:19;;;;;;;28.30;3.72;;;;;;;;;;5020835;28;20034;-77
2023/03/13 03:55:46;;;;;;;20.02;2.97;;;;;;;;;;5036009;28;20045;-78
2023/03/13 03:58:12;;;;;;;22.58;3.10;;;;;;;;;;5032449;28;20654;-77
2023/03/13 04:00:59;;;;;;;20.60;3.00;;;;;;;;;;5034429;28;20041;-78
2023/03/13 04:03:26;;;;;;;21.35;3.72;;;;;;;;;;5026873;28;20033;-78
2023/03/13 04:05:53;;;;;;;21.98;2.55;;;;;;;;;;5029416;28;20498;-78
2023/03/13 04:08:22;;;;;;;26.55;3.65;;;;;;;;;;5044851;28;20060;-78
2023/03/13 04:10:49;;;;;;;21.52;3.00;;;;;;;;;;5030638;28;20045;-78
2023/03/13 04:13:18;;;;;;;26.17;3.13;;;;;;;;;;5030270;28;20068;-77
2023/03/13 04:15:45;;;;;;;24.85;3.20;;;;;;;;;;5064348;28;20057;-79
2023/03/13 04:18:11;;;;;;;24.27;2.78;;;;;;;;;;5033793;28;20068;-79
2023/03/13 04:20:38;;;;;;;16.90;2.80;;;;;;;;;;5064383;28;20061;-78
2023/03/13 04:23:05;;;;;;;14.73;2.17;;;;;;;;;;5029608;28;20107;-79
2023/03/13 04:25:31;;;;;;;22.40;2.60;;;;;;;;;;5029111;28;20073;-78
2023/03/13 04:27:59;;;;;;;23.23;3.22;;;;;;;;;;5058913;28;20060;-78
2023/03/13 04:30:33;;;;;;;16.73;2.92;;;;;;;;;;5028755;28;20045;-79
2023/03/13 04:33:25;;;;;;;23.98;3.00;;;;;;;;;;5029388;28;20105;-78
2023/03/13 04:36:12;;;;;;;20.90;2.90;;;;;;;;;;4999987;28;20049;-78
2023/03/13 04:39:02;;;;;;;21.30;2.60;;;;;;;;;;5030395;28;20041;-80
2023/03/13 04:41:55;;;;;;;16.67;2.65;;;;;;;;;;5024332;28;20049;-79
2023/03/13 04:44:40;;;;;;;26.63;2.90;;;;;;;;;;5033800;28;20039;-79
2023/03/13 04:47:19;;;;;;;23.92;2.55;;;;;;;;;;5030689;28;20209;-79
2023/03/13 04:50:08;;;;;;;23.58;3.00;;;;;;;;;;5023043;28;20065;-78
2023/03/13 04:52:43;;;;;;;21.02;3.60;;;;;;;;;;5028118;28;20045;-79
2023/03/13 04:55:28;;;;;;;19.75;3.05;;;;;;;;;;5030949;28;20049;-79
2023/03/13 04:58:05;;;;;;;23.52;3.08;;;;;;;;;;5029158;28;20418;-79
2023/03/13 05:00:55;;;;;;;18.80;2.40;;;;;;;;;;5022762;28;20059;-79
2023/03/13 05:03:33;;;;;;;18.92;2.42;;;;;;;;;;5014700;28;20045;-78
2023/03/13 05:06:08;;;;;;;19.35;2.83;;;;;;;;;;5029085;28;20079;-79
2023/03/13 05:08:57;;;;;;;19.13;2.75;;;;;;;;;;5031977;28;20115;-78
2023/03/13 05:11:36;;;;;;;17.38;2.17;;;;;;;;;;5028920;28;20092;-79
2023/03/13 05:14:28;;;;;;;13.15;2.35;;;;;;;;;;5046729;28;20071;-78
2023/03/13 05:17:33;;;;;;;19.50;3.20;;;;;;;;;;4993907;28;20042;-80
2023/03/13 05:20:21;;;;;;;12.60;2.75;;;;;;;;;;4993376;28;20081;-79
2023/03/13 05:22:59;;;;;;;20.05;3.28;;;;;;;;;;5005607;28;20412;-79
2023/03/13 05:25:35;;;;;;;17.05;2.40;;;;;;;;;;5018438;28;20095;-80
2023/03/13 05:28:40;;;;;;;22.85;2.38;;;;;;;;;;5028602;28;20042;-80
2023/03/13 05:31:30;;;;;;;18.65;2.53;;;;;;;;;;5039103;28;20037;-79
2023/03/13 05:34:15;;;;;;;16.48;2.55;;;;;;;;;;5015322;28;20120;-79
2023/03/13 05:36:44;;;;;;;17.15;2.50;;;;;;;;;;5023923;28;20088;-79
2023/03/13 05:39:39;;;;;;;21.35;2.63;;;;;;;;;;5057286;28;20057;-79
2023/03/13 05:42:17;;;;;;;15.80;2.13;;;;;;;;;;5067109;28;20053;-78
2023/03/13 05:45:14;;;;;;;14.05;2.38;;;;;;;;;;5033338;28;20099;-79
2023/03/13 05:47:46;;;;;;;19.95;2.85;;;;;;;;;;5033642;28;20477;-79
2023/03/13 05:50:30;;;;;;;12.70;2.20;;;;;;;;;;5032462;28;20098;-79
2023/03/13 05:53:03;;;;;;;21.15;2.70;;;;;;;;;;5030050;28;20056;-79
2023/03/13 05:55:54;;;;;;;18.92;2.42;;;;;;;;;;4996866;28;20045;-78
2023/03/13 05:58:41;;;;;;;17.13;2.33;;;;;;;;;;5044611;28;20056;-78
2023/03/13 06:01:23;;;;;;;15.73;2.13;;;;;;;;;;5024121;28;20502;-78
2023/03/13 06:04:09;;;;;;;12.57;2.15;;;;;;;;;;5026459;28;20046;-79
2023/03/13 06:06:37;;;;;;;18.50;2.38;;;;;;;;;;5027486;28;20095;-77
2023/03/13 06:09:04;;;;;;;17.63;2.25;;;;;;;;;;5027638;28;20080;-78
2023/03/13 06:11:32;;;;;;;15.45;2.38;;;;;;;;;;5029973;28;20091;-78
2023/03/13 06:13:59;;;;;;;14.88;2.03;;;;;;;;;;5028161;28;20636;-80
2023/03/13 06:16:32;;;;;;;16.10;2.35;;;;;;;;;;5027136;28;20044;-79
2023/03/13 06:19:17;;;;;;;17.10;2.00;;;;;;;;;;5027961;28;20045;-78
2023/03/13 06:21:44;;;;;;;14.52;2.85;;;;;;;;;;5028713;28;20045;-78
2023/03/13 06:24:10;;;;;;;14.48;2.65;;;;;;;;;;5025603;28;20048;-79
2023/03/13 06:26:37;;;;;;;11.57;2.20;;;;;;;;;;5025079;28;20220;-79
2023/03/13 06:29:03;;;;;;;18.58;2.42;;;;;;;;;;5026152;28;20041;-79
2023/03/13 06:31:31;;;;;;;15.70;2.95;;;;;;;;;;5028803;28;20092;-79
2023/03/13 06:33:57;;;;;;;13.18;2.22;;;;;;;;;;5027997;28;20041;-79
2023/03/13 06:36:24;;;;;;;12.55;2.08;;;;;;;;;;5027011;28;20383;-79
2023/03/13 06:38:51;;;;;;;17.90;2.30;;;;;;;;;;5026783;28;20045;-79
2023/03/13 06:41:17;;;;;;;18.50;2.30;;;;;;;;;;5026803;28;20109;-79
2023/03/13 06:43:44;;;;;;;16.77;2.40;;;;;;;;;;5026775;28;20442;-78
2023/03/13 06:46:20;;;;;;;15.05;2.00;;;;;;;;;;5027556;28;20152;-79
2023/03/13 06:48:47;;;;;;;13.95;2.28;;;;;;;;;;5028292;28;20042;-78
2023/03/13 06:51:15;;;;;;;11.30;1.65;;;;;;;;;;5026889;28;20038;-79
2023/03/13 06:53:43;;;;;;;20.95;3.10;;;;;;;;;;5025886;28;20124;-79
2023/03/13 06:56:10;;;;;;;19.27;2.45;;;;;;;;;;5025524;28;20144;-78
2023/03/13 06:58:37;;;;;;;16.92;2.05;;;;;;;;;;5022106;28;21158;-79
2023/03/13 07:01:06;;;;;;;15.27;2.40;;;;;;;;;;5025991;28;20095;-79
2023/03/13 07:03:34;;;;;;;18.42;2.33;;;;;;;;;;5019146;28;20150;-79
2023/03/13 07:06:00;;;;;;;10.65;1.65;;;;;;;;;;5027096;28;20073;-78
2023/03/13 07:08:27;;;;;;;15.20;2.20;;;;;;;;;;5024967;28;20517;-78
2023/03/13 07:10:57;;;;;;;12.15;1.85;;;;;;;;;;5020272;28;20140;-80
2023/03/13 07:13:24;;;;;;;10.23;1.55;;;;;;;;;;5020908;28;20053;-80
2023/03/13 07:15:50;;;;;;;9.45;1.75;;;;;;;;;;5044812;28;20053;-79
2023/03/13 07:18:17;;;;;;;12.32;2.33;;;;;;;;;;5044643;28;20063;-79
2023/03/13 07:20:43;;;;;;;12.23;1.80;;;;;;;;;;5079375;28;20049;-78
2023/03/13 07:23:10;;;;;;;8.32;1.70;;;;;;;;;;5079286;28;20037;-80
2023/03/13 07:25:36;;;;;;;12.20;1.70;;;;;;;;;;5048175;28;20219;-78
2023/03/13 07:28:03;;;;;;;9.13;1.73;;;;;;;;;;5044097;28;20153;-78
2023/03/13 07:30:30;;;;;;;9.80;1.48;;;;;;;;;;5047410;28;20311;-78
2023/03/13 07:32:57;;;;;;;10.88;1.52;;;;;;;;;;5047544;28;20055;-79
2023/03/13 07:35:24;;;;;;;10.65;1.50;;;;;;;;;;5047311;28;20064;-78
2023/03/13 07:37:51;;;;;;;9.85;1.60;;;;;;;;;;5046749;28;20049;-79
2023/03/13 07:40:17;;;;;;;5.90;1.40;;;;;;;;;;5045458;28;20049;-79
2023/03/13 07:42:44;;;;;;;7.80;1.70;;;;;;;;;;5047160;28;20075;-79
2023/03/13 07:45:10;;;;;;;7.93;1.25;;;;;;;;;;5048000;28;20045;-79
2023/03/13 07:47:37;;;;;;;8.68;1.20;;;;;;;;;;5049794;28;20060;-78
2023/03/13 07:50:04;;;;;;;4.47;1.20;;;;;;;;;;5047230;28;20504;-78
2023/03/13 07:52:32;;;;;;;8.70;1.38;;;;;;;;;;5045376;28;20053;-79
2023/03/13 07:54:58;;;;;;;7.35;1.20;;;;;;;;;;5046451;28;20049;-79
2023/03/13 07:57:25;;;;;;;5.72;0.75;;;;;;;;;;5046213;28;20114;-81
2023/03/13 07:59:52;;;;;;;4.88;0.80;;;;;;;;;;5046753;28;20045;-79
2023/03/13 08:02:18;;;;;;;6.93;1.00;;;;;;;;;;5031462;28;20045;-78
2023/03/13 08:04:45;;;;;;;4.05;0.93;;;;;;;;;;5030292;28;20075;-77
2023/03/13 08:07:11;;;;;;;4.80;1.30;;;;;;;;;;5047552;28;20478;-79
2023/03/13 08:09:38;;;;;;;1.88;0.60;;;;;;;;;;5051511;28;20045;-80
2023/03/13 08:12:05;;;;;;;9.45;1.08;;;;;;;;;;5055383;28;20049;-79
2023/03/13 08:14:32;;;;;;;7.78;1.23;;;;;;;;;;5044252;28;20049;-79
2023/03/13 08:16:58;;;;;;;6.07;0.90;;;;;;;;;;5036228;28;20053;-79
2023/03/13 08:19:25;;;;;;;6.15;1.05;;;;;;;;;;5034334;28;20260;-78
2023/03/13 08:21:52;;;;;;;2.97;0.85;;;;;;;;;;5034649;28;20050;-79
2023/03/13 08:24:19;;;;;;;5.88;1.25;;;;;;;;;;5041772;28;20045;-81
2023/03/13 08:26:45;;;;;;;6.78;1.02;;;;;;;;;;5043937;28;20049;-78
2023/03/13 08:29:13;;;;;;;4.78;0.80;;;;;;;;;;5041932;28;20101;-78
2023/03/13 08:31:44;;;;;;;6.35;1.13;;;;;;;;;;5050175;28;20037;-79
2023/03/13 08:34:11;;;;;;;5.38;1.20;;;;;;;;;;5022406;28;20065;-79
2023/03/13 08:36:38;;;;;;;6.10;1.10;;;;;;;;;;5036529;28;20045;-79
2023/03/13 08:39:06;;;;;;;2.65;1.10;;;;;;;;;;5034454;28;20104;-79
2023/03/13 08:41:39;;;;;;;2.78;1.00;;;;;;;;;;5035293;28;20103;-80
2023/03/13 08:44:07;;;;;;;4.32;1.27;;;;;;;;;;5033584;28;20111;-77
2023/03/13 08:46:34;;;;;;;2.60;0.80;;;;;;;;;;5033019;28;20048;-78
2023/03/13 08:49:02;;;;;;;7.18;1.15;;;;;;;;;;5032536;28;20100;-79
2023/03/13 08:51:29;;;;;;;4.43;1.00;;;;;;;;;;5035245;28;20049;-79
2023/03/13 08:53:56;;;;;;;4.95;1.15;;;;;;;;;;5033111;28;20064;-79
2023/03/13 08:56:24;;;;;;;4.13;1.20;;;;;;;;;;5033507;28;20096;-78
2023/03/13 08:58:52;;;;;;;2.95;1.10;;;;;;;;;;5070275;28;20049;-80
2023/03/13 09:01:19;;;;;;;3.55;0.95;;;;;;;;;;5035065;28;20057;-78
2023/03/13 09:03:46;;;;;;;4.25;0.82;;;;;;;;;;5034379;28;20080;-78
2023/03/13 09:06:12;;;;;;;2.28;0.90;;;;;;;;;;5037902;28;20057;-78
2023/03/13 09:08:39;;;;;;;3.33;0.88;;;;;;;;;;5068264;28;20053;-78
2023/03/13 09:11:07;;;;;;;4.63;1.08;;;;;;;;;;5069699;28;20116;-80
2023/03/13 09:13:36;;;;;;;2.60;1.30;;;;;;;;;;5037698;28;20121;-78
2023/03/13 09:16:07;;;;;;;5.57;1.25;;;;;;;;;;5037843;28;20110;-78
2023/03/13 09:18:34;;;;;;;6.43;1.08;;;;;;;;;;5035303;28;20237;-78
2023/03/13 09:21:01;;;;;;;4.20;1.00;;;;;;;;;;5038507;28;20080;-78
2023/03/13 09:23:27;;;;;;;4.13;1.02;;;;;;;;;;5034482;28;20045;-78
2023/03/13 09:25:55;;;;;;;3.35;1.00;;;;;;;;;;5036120;28;20041;-78
2023/03/13 09:28:22;;;;;;;3.88;1.25;;;;;;;;;;5030792;28;20037;-78
2023/03/13 09:30:49;;;;;;;3.05;1.08;;;;;;;;;;5033100;28;20068;-79
2023/03/13 09:33:16;;;;;;;3.22;1.05;;;;;;;;;;5033667;28;20293;-77
2023/03/13 09:35:45;;;;;;;5.45;1.20;;;;;;;;;;5037448;28;20064;-77
2023/03/13 09:38:12;;;;;;;3.65;0.95;;;;;;;;;;5037105;28;20046;-78
2023/03/13 09:40:44;;;;;;;2.25;1.17;;;;;;;;;;5044192;28;20045;-75
2023/03/13 09:44:07;;;;;;;4.20;1.00;;;;;;;;;;5039866;28;20064;-78
2023/03/13 09:46:51;;;;;;;1.75;0.85;;;;;;;;;;4974168;28;20046;-79
2023/03/13 09:49:27;;;;;;;2.75;0.98;;;;;;;;;;4973398;28;20050;-77
2023/03/13 09:51:59;;;;;;;5.85;1.10;;;;;;;;;;4996214;28;20076;-77
2023/03/13 09:54:36;;;;;;;4.68;0.98;;;;;;;;;;5036161;28;20049;-79
2023/03/13 09:57:06;;;;;;;1.73;0.77;;;;;;;;;;5034240;28;20033;-78
2023/03/13 09:59:42;;;;;;;2.92;0.68;;;;;;;;;;5034689;28;20103;-78
2023/03/13 10:02:08;;;;;;;;;;;;;;;;;;5026880;28;20407;-79
2023/03/13 10:04:42;;;;;;;3.17;0.80;;;;;;;;;;5031061;28;19925;-79
2023/03/13 10:07:10;;;;;;;4.53;1.15;;;;;;;;;;5029995;28;20582;-79
2023/03/13 10:09:39;;;;;;;2.50;0.90;;;;;;;;;;5030558;28;20638;-79
2023/03/13 10:12:06;;;;;;;4.25;1.25;;;;;;;;;;5061008;28;20045;-79
2023/03/13 10:14:46;;;;;;;3.65;1.10;;;;;;;;;;5030046;28;20491;-79
2023/03/13 10:17:39;;;;;;;0.90;0.60;;;;;;;;;;5023861;28;20672;-78
2023/03/13 10:20:24;;;;;;;2.17;0.77;;;;;;;;;;5028987;28;20569;-78
2023/03/13 10:23:01;;;;;;;2.80;0.80;;;;;;;;;;5034567;28;20045;-79
2023/03/13 10:25:32;;;;;;;3.67;0.80;;;;;;;;;;5031223;28;20060;-78
2023/03/13 10:27:59;;;;;;;1.40;0.70;;;;;;;;;;5030143;28;20049;-78
2023/03/13 10:30:26;;;;;;;5.18;1.05;;;;;;;;;;5032319;28;20048;-78
2023/03/13 10:32:53;;;;;;;3.03;1.00;;;;;;;;;;5057392;28;20088;-78
2023/03/13 10:35:22;;;;;;;2.50;0.95;;;;;;;;;;5036479;28;20350;-79
2023/03/13 10:37:49;;;;;;;6.15;1.10;;;;;;;;;;5035860;28;20041;-80
2023/03/13 10:40:23;;;;;;;2.10;0.88;;;;;;;;;;5050522;28;20056;-80
2023/03/13 10:42:51;;;;;;;3.38;1.00;;;;;;;;;;5042524;28;20095;-80
2023/03/13 10:45:18;;;;;;;1.80;0.70;;;;;;;;;;5041597;28;20049;-78
2023/03/13 10:47:55;;;;;;;4.28;1.00;;;;;;;;;;5039677;28;20038;-77
2023/03/13 10:50:23;;;;;;;3.35;1.17;;;;;;;;;;5038761;28;20049;-78
2023/03/13 10:52:50;;;;;;;4.47;1.10;;;;;;;;;;5040907;28;20045;-78
2023/03/13 10:55:21;;;;;;;2.80;0.90;;;;;;;;;;5031805;28;20083;-79
2023/03/13 10:57:51;;;;;;;5.65;1.05;;;;;;;;;;5032528;28;20061;-78
2023/03/13 11:00:27;;;;;;;2.95;0.90;;;;;;;;;;5016618;28;20045;-78
2023/03/13 11:02:55;;;;;;;2.92;0.88;;;;;;;;;;5035830;28;20041;-77
2023/03/13 11:05:24;;;;;;;2.70;1.00;;;;;;;;;;5061811;28;20046;-78
2023/03/13 11:07:54;;;;;;;2.33;1.00;;;;;;;;;;5026065;28;20038;-77
2023/03/13 11:10:24;;;;;;;1.88;0.82;;;;;;;;;;5026540;28;20040;-77
2023/03/13 11:12:52;;;;;;;1.67;0.60;;;;;;;;;;5026294;28;20462;-79
2023/03/13 11:15:40;;;;;;;2.70;1.02;;;;;;;;;;5027858;28;20049;-79
2023/03/13 11:18:26;;;;;;;3.47;0.93;;;;;;;;;;5026718;28;20044;-79
2023/03/13 11:20:53;;;;;;;1.95;0.77;;;;;;;;;;5025837;28;20132;-78
2023/03/13 11:23:29;;;;;;;4.47;0.90;;;;;;;;;;5029208;28;20044;-79
2023/03/13 11:25:56;;;;;;;1.85;0.90;;;;;;;;;;5039472;28;20060;-77
2023/03/13 11:28:28;;;;;;;2.33;0.85;;;;;;;;;;5027555;28;20052;-77
2023/03/13 11:31:00;;;;;;;1.55;0.73;;;;;;;;;;5028569;28;20510;-77
2023/03/13 11:33:51;;;;;;;4.30;0.90;;;;;;;;;;5044971;28;20510;-78
2023/03/13 11:36:24;;;;;;;1.10;0.80;;;;;;;;;;5022107;28;20072;-78
2023/03/13 11:38:58;;;;;;;3.03;1.02;;;;;;;;;;5028924;28;20060;-79
2023/03/13 11:41:25;;;;;;;3.70;1.00;;;;;;;;;;5011596;28;20051;-78
2023/03/13 11:43:54;;;;;;;2.28;0.77;;;;;;;;;;5027333;28;20697;-78
2023/03/13 11:46:26;;;;;;;3.40;0.82;;;;;;;;;;5029568;28;20321;-78
2023/03/13 11:49:05;;;;;;;3.85;0.73;;;;;;;;;;5027268;28;20038;-78
2023/03/13 11:51:39;;;;;;;4.18;0.90;;;;;;;;;;5030189;28;20133;-78
2023/03/13 11:54:24;;;;;;;4.03;1.15;;;;;;;;;;5028410;28;20049;-79
2023/03/13 11:56:56;;;;;;;5.38;0.80;;;;;;;;;;5028081;28;20112;-79
2023/03/13 11:59:41;;;;;;;3.05;0.60;;;;;;;;;;5027980;28;20080;-80
2023/03/13 12:02:22;;;;;;;1.65;0.75;;;;;;;;;;5042134;28;20410;-79
2023/03/13 12:04:53;;;;;;;3.08;0.65;;;;;;;;;;5027367;28;20514;-77
2023/03/13 12:07:20;;;;;;;1.85;0.57;;;;;;;;;;5029628;28;20056;-78
2023/03/13 12:09:54;;;;;;;2.30;0.63;;;;;;;;;;5029302;28;20045;-79
2023/03/13 12:12:34;;;;;;;1.20;0.68;;;;;;;;;;5030572;28;20049;-79
2023/03/13 12:15:14;;;;;;;3.72;0.80;;;;;;;;;;5031849;28;20053;-79
2023/03/13 12:17:50;;;;;;;3.83;0.70;;;;;;;;;;5055996;28;20051;-77
2023/03/13 12:20:20;;;;;;;1.92;0.73;;;;;;;;;;5045137;28;20040;-77
2023/03/13 12:22:54;;;;;;;2.88;0.70;;;;;;;;;;5052393;28;20048;-78
2023/03/13 12:25:23;;;;;;;3.88;0.80;;;;;;;;;;5052762;28;20095;-78
2023/03/13 12:27:51;;;;;;;2.78;1.00;;;;;;;;;;5034860;28;20073;-79
2023/03/13 12:30:44;;;;;;;4.03;0.82;;;;;;;;;;5041833;28;20406;-77
2023/03/13 12:33:14;;;;;;;2.30;0.90;;;;;;;;;;5029571;28;20421;-77
2023/03/13 12:35:43;;;;;;;2.53;0.93;;;;;;;;;;5033391;28;20052;-78
2023/03/13 12:38:16;;;;;;;3.60;0.85;;;;;;;;;;5031162;28;20041;-78
2023/03/13 12:40:43;;;;;;;3.08;0.60;;;;;;;;;;5035619;28;20045;-78
2023/03/13 12:43:17;;;;;;;3.58;0.90;;;;;;;;;;5035513;28;20048;-79
2023/03/13 12:45:56;;;;;;;1.33;0.70;;;;;;;;;;5035205;28;20105;-78
2023/03/13 12:48:26;;;;;;;2.25;0.75;;;;;;;;;;5034529;28;20045;-77
2023/03/13 12:51:26;;;;;;;2.28;0.98;;;;;;;;;;5032515;28;20433;-78
2023/03/13 12:54:11;;;;;;;2.92;0.70;;;;;;;;;;5030865;28;20065;-77
2023/03/13 12:56:47;;;;;;;1.60;0.60;;;;;;;;;;5053214;28;20078;-78
2023/03/13 12:59:32;;;;;;;1.25;0.68;;;;;;;;;;5069863;28;20038;-76
2023/03/13 13:02:06;;;;;;;1.42;0.88;;;;;;;;;;5050975;28;20109;-77
2023/03/13 13:04:40;;;;;;;2.00;0.70;;;;;;;;;;5039357;28;20052;-78
2023/03/13 13:07:27;;;;;;;1.25;0.68;;;;;;;;;;5031805;28;20045;-79
2023/03/13 13:10:15;;;;;;;1.73;0.77;;;;;;;;;;5033280;28;20059;-79
2023/03/13 13:12:44;;;;;;;1.55;0.90;;;;;;;;;;5024197;28;20054;-80
2023/03/13 13:15:10;;;;;;;3.30;1.00;;;;;;;;;;5025748;28;20054;-78
2023/03/13 13:17:37;;;;;;;3.42;0.93;;;;;;;;;;5019392;28;20076;-77
2023/03/13 13:20:23;;;;;;;2.78;1.05;;;;;;;;;;5019129;28;20058;-79
2023/03/13 13:22:49;;;;;;;2.00;0.90;;;;;;;;;;5030323;28;20050;-77
2023/03/13 13:25:20;;;;;;;2.22;1.02;;;;;;;;;;5022968;28;20038;-78
2023/03/13 13:27:48;;;;;;;2.60;0.70;;;;;;;;;;5040753;28;20065;-79
2023/03/13 13:30:17;;;;;;;3.75;0.80;;;;;;;;;;5031086;28;20128;-79
2023/03/13 13:32:54;;;;;;;2.80;0.98;;;;;;;;;;5032366;28;20065;-78
2023/03/13 13:35:23;;;;;;;1.70;0.80;;;;;;;;;;5042864;28;20038;-79
2023/03/13 13:37:50;;;;;;;2.55;0.90;;;;;;;;;;5041027;28;20054;-79
2023/03/13 13:40:23;;;;;;;3.17;0.90;;;;;;;;;;5044605;28;20488;-79
2023/03/13 13:43:00;;;;;;;1.23;0.70;;;;;;;;;;5043203;28;20057;-79
2023/03/13 13:45:50;;;;;;;2.85;1.02;;;;;;;;;;5041530;28;20042;-79
2023/03/13 13:48:26;;;;;;;4.45;1.30;;;;;;;;;;5014667;28;20053;-78
2023/03/13 13:51:18;;;;;;;2.72;1.20;;;;;;;;;;5038340;28;20125;-79
2023/03/13 13:53:46;;;;;;;6.40;1.13;;;;;;;;;;5035521;28;20136;-78
2023/03/13 13:56:28;;;;;;;2.80;1.05;;;;;;;;;;5037137;28;20057;-79
2023/03/13 13:59:05;;;;;;;2.95;1.25;;;;;;;;;;5032238;28;20132;-78
2023/03/13 14:01:33;;;;;;;2.25;1.10;;;;;;;;;;5031337;28;20551;-79
2023/03/13 14:04:09;;;;;;;3.50;1.02;;;;;;;;;;5031221;28;20086;-79
2023/03/13 14:06:37;;;;;;;3.15;1.20;;;;;;;;;;5029029;28;20033;-77
2023/03/13 14:09:19;;;;;;;5.22;0.90;;;;;;;;;;5030434;28;20083;-78
2023/03/13 14:11:46;;;;;;;2.17;1.13;;;;;;;;;;5033962;28;20517;-78
2023/03/13 14:14:22;;;;;;;2.97;1.00;;;;;;;;;;5032533;28;20061;-78
2023/03/13 14:16:55;;;;;;;2.38;1.10;;;;;;;;;;5029143;28;20098;-77
2023/03/13 14:19:24;;;;;;;1.88;0.90;;;;;;;;;;5029956;28;20045;-78
2023/03/13 14:21:56;;;;;;;3.17;1.10;;;;;;;;;;5045612;28;20045;-78
2023/03/13 14:24:23;;;;;;;1.65;0.85;;;;;;;;;;5046942;28;20046;-78
2023/03/13 14:26:49;;;;;;;1.77;0.93;;;;;;;;;;5030885;28;20045;-76
2023/03/13 14:29:19;;;;;;;3.63;0.90;;;;;;;;;;5030535;28;20045;-78
2023/03/13 14:31:50;;;;;;;3.15;1.08;;;;;;;;;;5011947;28;20512;-77
2023/03/13 14:34:16;;;;;;;3.47;1.20;;;;;;;;;;5010422;28;20061;-79
2023/03/13 14:36:46;;;;;;;3.60;1.17;;;;;;;;;;5027399;28;20033;-79
2023/03/13 14:39:36;;;;;;;2.05;1.08;;;;;;;;;;5043937;28;20079;-79
2023/03/13 14:42:09;;;;;;;1.02;0.77;;;;;;;;;;5053813;28;20045;-78
2023/03/13 14:44:37;;;;;;;2.92;0.90;;;;;;;;;;5038094;28;20048;-78
2023/03/13 14:47:06;;;;;;;3.00;1.20;;;;;;;;;;5019154;28;20125;-78
2023/03/13 14:49:37;;;;;;;1.73;0.90;;;;;;;;;;5036738;28;20528;-78
2023/03/13 14:52:05;;;;;;;3.47;1.38;;;;;;;;;;5037424;28;20104;-79
2023/03/13 14:54:35;;;;;;;1.67;0.80;;;;;;;;;;5016421;28;20045;-77
2023/03/13 14:57:08;;;;;;;4.45;0.85;;;;;;;;;;5023150;28;20049;-78
2023/03/13 14:59:35;;;;;;;3.75;0.90;;;;;;;;;;5030158;28;20157;-79
2023/03/13 15:02:10;;;;;;;3.40;1.10;;;;;;;;;;5032914;28;20041;-78
2023/03/13 15:04:58;;;;;;;3.00;0.98;;;;;;;;;;5041786;28;20045;-78